CheckWX is a tool to help pilots better visualize weather data.  It is not intended as a substitute for an official pre-flight weather briefing.

09:46:12 UTC

KLBO METAR
Floyd W Jones Lebanon Airport
Lebanon, Missouri, USA
Current

11 mins ago

KLBO 200935Z AUTO 00000KT 2SM BR OVC002 00/00 A2980 RMK AO2 LTG DSNT S
Observed
Feb-20 @ 09:35 UTC
Visibility
3,219 meters
Flight Rules
LIFR
Conditions
Mist
Cloud Levels
  • Overcast at 200' AGL
Temperature
C / 32°F
Dewpoint
C / 32°F
Humidity
100%
Altimeter
29.8" Hg
Pressure
1009.12 hPa
Previous

31 mins ago

KLBO 200915Z AUTO 00000KT 2 1/2SM BR OVC002 00/00 A2982 RMK AO2 LTG DSNT SE AND S
Observed
Feb-20 @ 09:15 UTC
Visibility
4,023 meters
Flight Rules
LIFR
Conditions
Mist
Cloud Levels
  • Overcast at 200' AGL
Temperature
C / 32°F
Dewpoint
C / 32°F
Humidity
100%
Altimeter
29.82" Hg
Pressure
1009.82 hPa
Previous

51 mins ago

KLBO 200855Z AUTO 00000KT 2SM BR OVC002 00/00 A2983 RMK AO2
Observed
Feb-20 @ 08:55 UTC
Visibility
3,219 meters
Flight Rules
LIFR
Conditions
Mist
Cloud Levels
  • Overcast at 200' AGL
Temperature
C / 32°F
Dewpoint
C / 32°F
Humidity
100%
Altimeter
29.83" Hg
Pressure
1010.12 hPa